Flight Track Log - Related Links

Times and Time Zones

All times are in EDT time to prevent confusion due to time zone crossing. See the XOJ548 flight status page for this flight to view local times or setup timezone preferences in your user account.

Time Position Orientation Groundspeed Altitude Reporting Facility
EDT Latitude Longitude Course Direction KTS MPH feet Rate Location/Type
Mon 03:28:51 PM 36.0650 -115.1772 202° Southwest 161 185 3,100  Level Los Angeles Center
Mon 03:29:27 PM 36.0358 -115.1919 202° Southwest 195 224 4,300 2,165 Climbing Los Angeles Center
Mon 03:30:28 PM 35.9900 -115.2497 226° Southwest 228 262 6,600 2,361 Climbing Los Angeles Center
Mon 03:31:29 PM 35.9283 -115.2433 175° South 279 321 9,100 2,311 Climbing Los Angeles Center
Mon 03:32:30 PM 35.9308 -115.1364 88° East 327 376 11,300 2,083 Climbing Los Angeles Center
Mon 03:33:30 PM 35.9661 -115.0211 69° East 369 425 13,300 1,878 Climbing Los Angeles Center
Mon 03:34:57 PM 36.0244 -114.8419 68° East 442 509 15,900 2,215 Climbing Los Angeles Center
Mon 03:35:59 PM 36.0628 -114.6833 73° East 421 484 18,800 2,468 Climbing Los Angeles Center
Mon 03:37:01 PM 36.1014 -114.5494 70° East 417 480 21,000 1,742 Climbing Los Angeles Center
Mon 03:38:03 PM 36.1381 -114.4111 72° East 424 488 22,400 1,306 Climbing Los Angeles Center
Mon 03:39:05 PM 36.1761 -114.2650 72° East 444 511 23,700 1,392 Climbing Los Angeles Center
Mon 03:40:08 PM 36.2142 -114.1147 73° East 456 525 25,300 1,536 Climbing Los Angeles Center
Mon 03:41:10 PM 36.2558 -113.9656 71° East 459 528 26,900 1,548 Climbing Los Angeles Center
Mon 03:42:12 PM 36.3686 -113.8331 43° Northeast 467 537 28,500 1,306 Climbing Los Angeles Center
Mon 03:43:14 PM 36.4658 -113.7228 42° Northeast 472 543 29,600 1,161 Climbing Los Angeles Center
Mon 03:44:16 PM 36.5725 -113.6011 42° Northeast 483 556 30,900 1,258 Climbing Los Angeles Center
Mon 03:45:18 PM 36.6733 -113.4864 42° Northeast 490 564 32,200 1,210 Climbing Los Angeles Center
Mon 03:46:20 PM 36.7731 -113.3706 43° Northeast 491 565 33,400 1,161 Climbing Los Angeles Center
Mon 03:47:22 PM 36.8742 -113.2547 42° Northeast 494 568 34,600 1,161 Climbing Los Angeles Center
Mon 03:48:24 PM 36.9764 -113.1375 42° Northeast 499 574 35,800 1,248 Climbing Los Angeles Center
Mon 03:49:27 PM 37.0981 -112.9964 43° Northeast 500 575 37,200 1,152 Climbing Los Angeles Center
Mon 03:50:29 PM 37.1992 -112.8792 43° Northeast 499 574 38,200 1,016 Climbing Los Angeles Center
Mon 03:51:31 PM 37.3006 -112.7622 43° Northeast 501 577 39,300 1,050 Climbing Los Angeles Center
Mon 03:52:29 PM 37.3981 -112.6453 44° Northeast 496 571 40,300 850 Climbing Salt Lake Center
Mon 03:53:31 PM 37.4958 -112.5297 43° Northeast 493 567 41,000 339 Climbing Salt Lake Center
Mon 03:54:33 PM 37.5950 -112.4147 43° Northeast 491 565 41,000  Level Salt Lake Center
Mon 03:55:35 PM 37.7192 -112.2764 41° Northeast 495 570 41,000  Level Salt Lake Center
Mon 03:56:37 PM 37.8383 -112.1869 31° Northeast 500 575 41,000  Level Salt Lake Center
Mon 03:57:39 PM 37.9581 -112.0931 32° Northeast 507 583 41,000  Level Salt Lake Center
Mon 03:58:41 PM 38.0761 -111.9992 32° Northeast 503 579 41,000  Level Salt Lake Center
Mon 03:59:43 PM 38.1944 -111.9050 32° Northeast 503 579 41,000  Level Salt Lake Center
Mon 04:00:45 PM 38.3125 -111.8119 32° Northeast 500 575 41,000  Level Salt Lake Center
Mon 04:01:47 PM 38.4519 -111.6994 32° Northeast 496 571 41,000  Level Salt Lake Center
Mon 04:02:49 PM 38.5675 -111.6050 33° Northeast 494 568 41,000  Level Salt Lake Center
Mon 04:03:51 PM 38.6853 -111.5111 32° Northeast 497 572 41,000  Level Salt Lake Center
Mon 04:04:53 PM 38.8028 -111.4131 33° Northeast 503 579 41,000  Level Salt Lake Center
Mon 04:05:55 PM 38.9211 -111.3150 33° Northeast 508 585 41,000  Level Salt Lake Center
Mon 04:06:57 PM 39.0561 -111.2039 33° Northeast 507 583 41,000  Level Salt Lake Center
Mon 04:07:59 PM 39.1708 -111.1111 32° Northeast 507 583 41,000  Level Salt Lake Center
Mon 04:09:01 PM 39.3025 -110.9994 33° Northeast 507 583 41,000  Level Salt Lake Center
Mon 04:10:03 PM 39.4158 -110.9056 33° Northeast 505 581 41,000  Level Salt Lake Center
Mon 04:11:05 PM 39.5472 -110.7961 33° Northeast 502 578 41,000  Level Salt Lake Center
Mon 04:12:07 PM 39.6592 -110.7019 33° Northeast 501 577 41,000  Level Salt Lake Center
Mon 04:13:10 PM 39.7914 -110.5906 33° Northeast 504 580 41,000  Level Salt Lake Center
Mon 04:14:11 PM 39.9025 -110.4961 33° Northeast 500 575 41,000  Level Salt Lake Center
Mon 04:15:13 PM 40.0153 -110.4000 33° Northeast 502 578 41,000  Level Salt Lake Center
Mon 04:16:15 PM 40.1458 -110.2883 33° Northeast 502 578 41,000  Level Salt Lake Center
Mon 04:17:17 PM 40.2586 -110.1906 33° Northeast 504 580 41,000  Level Salt Lake Center
Mon 04:18:19 PM 40.3903 -110.0778 33° Northeast 505 581 41,000  Level Salt Lake Center
Mon 04:19:21 PM 40.5042 -109.9786 33° Northeast 507 583 41,000  Level Salt Lake Center
Mon 04:20:23 PM 40.6367 -109.8631 33° Northeast 510 587 41,000  Level Salt Lake Center
Mon 04:21:25 PM 40.7503 -109.7631 34° Northeast 512 589 41,000  Level Salt Lake Center
Mon 04:22:27 PM 40.8800 -109.6497 33° Northeast 510 587 41,000  Level Salt Lake Center
Mon 04:23:29 PM 40.9931 -109.5500 34° Northeast 510 587 41,000  Level Salt Lake Center
Mon 04:24:31 PM 41.1242 -109.4328 34° Northeast 511 588 41,000  Level Salt Lake Center
Mon 04:25:33 PM 41.2375 -109.3328 34° Northeast 510 587 41,000  Level Salt Lake Center
Mon 04:26:35 PM 41.3683 -109.2150 34° Northeast 508 585 41,000  Level Salt Lake Center
Mon 04:27:37 PM 41.4744 -109.1225 33° Northeast 516 594 41,000  Level Salt Lake Center
Mon 04:28:39 PM 41.6097 -109.0131 31° Northeast 506 582 41,000  Level Salt Lake Center
Mon 04:29:41 PM 41.7558 -108.9553 16° North 490 564 41,000  Level Salt Lake Center
Mon 04:30:43 PM 41.8828 -108.9081 15° North 494 568 41,000  Level Salt Lake Center
Mon 04:31:45 PM 42.0111 -108.8606 15° North 499 574 41,000  Level Salt Lake Center
Mon 04:32:47 PM 42.1589 -108.8067 15° North 495 570 41,000  Level Salt Lake Center
Mon 04:33:49 PM 42.2853 -108.7586 16° North 495 570 41,000  Level Salt Lake Center
Mon 04:34:50 PM 42.4322 -108.7017 16° North 493 567 41,000  Level Salt Lake Center
Mon 04:35:52 PM 42.5578 -108.6547 15° North 491 565 41,000  Level Salt Lake Center
Mon 04:36:54 PM 42.7053 -108.5978 16° North 494 568 41,000  Level Salt Lake Center
Mon 04:37:58 PM 42.8319 -108.5494 16° North 494 568 41,000  Level Salt Lake Center
Mon 04:38:58 PM 42.9767 -108.4933 16° North 496 571 41,000  Level Salt Lake Center
Mon 04:40:00 PM 43.1081 -108.4411 16° North 493 567 41,000  Level Salt Lake Center
Mon 04:41:02 PM 43.2406 -108.3908 15° North 494 568 41,000  Level Salt Lake Center
Mon 04:42:03 PM 43.3731 -108.3381 16° North 497 572 41,000  Level Salt Lake Center
Mon 04:43:05 PM 43.5028 -108.2719 20° North 502 578 41,000  Level Salt Lake Center
Mon 04:44:07 PM 43.6503 -108.1553 30° Northeast 509 586 41,000  Level Salt Lake Center
Mon 04:45:09 PM 43.7417 -108.0011 51° Northeast 523 602 41,000  Level Salt Lake Center
Mon 04:46:23 PM 43.8164 -107.7811 65° Northeast 528 608 41,000  Level Salt Lake Center
Mon 04:47:24 PM 43.8756 -107.5972 66° East 529 609 41,000  Level Salt Lake Center
Mon 04:48:26 PM 43.9347 -107.4150 66° East 523 602 41,000  Level Salt Lake Center
Mon 04:49:28 PM 43.9953 -107.2297 66° East 530 610 41,000  Level Salt Lake Center
Mon 04:50:07 PM 44.0458 -107.0803 65° Northeast 526 605 41,000  Level Denver Center
Mon 04:51:09 PM 44.1061 -106.8956 66° East 528 608 41,000  Level Denver Center
Mon 04:52:11 PM 44.1700 -106.6975 66° East 529 609 41,000  Level Denver Center
Mon 04:53:12 PM 44.2233 -106.5256 67° East 524 603 41,000  Level Denver Center
Mon 04:54:14 PM 44.2836 -106.3397 66° East 527 606 41,000  Level Denver Center
Mon 04:55:16 PM 44.3481 -106.1333 66° East 524 603 41,000  Level Denver Center
Mon 04:56:18 PM 44.4039 -105.9539 66° East 524 603 41,000  Level Denver Center
Mon 04:57:20 PM 44.4686 -105.7450 66° East 523 602 41,000  Level Denver Center
Mon 04:58:22 PM 44.5256 -105.5600 67° East 523 602 41,000  Level Denver Center
Mon 04:59:24 PM 44.5872 -105.3553 67° East 524 603 41,000  Level Denver Center
Mon 05:00:26 PM 44.6419 -105.1750 67° East 524 603 41,000  Level Denver Center
Mon 05:01:27 PM 44.7042 -104.9642 67° East 523 602 41,000  Level Denver Center
Mon 05:02:29 PM 44.7619 -104.7722 67° East 523 602 41,000  Level Denver Center
Mon 05:03:31 PM 44.8200 -104.5750 67° East 520 598 41,000  Level Denver Center
Mon 05:04:54 PM 44.8914 -104.3308 68° East 524 603 41,000  Level Salt Lake Center
Mon 05:05:56 PM 44.9519 -104.1211 68° East 519 597 41,000  Level Salt Lake Center
Mon 05:06:49 PM 44.9861 -104.0022 68° East 518 596 41,000  Level Denver Center
Mon 05:07:51 PM 45.0464 -103.7936 68° East 520 598 41,000  Level Denver Center
Mon 05:09:01 PM 45.1158 -103.5450 68° East 522 601 41,000  Level Salt Lake Center
Mon 05:10:03 PM 45.1675 -103.3622 68° East 522 601 41,000  Level Salt Lake Center
Mon 05:11:05 PM 45.2206 -103.1697 69° East 525 604 41,000  Level Salt Lake Center
Mon 05:12:07 PM 45.2731 -102.9742 69° East 530 610 41,000  Level Salt Lake Center
Mon 05:12:44 PM 45.3028 -102.8753 67° East 523 602 41,000  Level Minneapolis Center
Mon 05:13:46 PM 45.3667 -102.6436 68° East 525 604 41,000  Level Minneapolis Center
Mon 05:14:48 PM 45.3992 -102.4414 77° East 523 602 41,000  Level Minneapolis Center
Mon 05:15:50 PM 45.4269 -102.2389 79° East 522 601 41,000  Level Minneapolis Center
Mon 05:16:52 PM 45.4547 -102.0339 79° East 524 603 41,000  Level Minneapolis Center
Mon 05:17:55 PM 45.4881 -101.7836 79° East 533 613 41,000  Level Minneapolis Center
Mon 05:18:57 PM 45.5147 -101.5750 80° East 534 615 41,000  Level Minneapolis Center
Mon 05:19:59 PM 45.5417 -101.3672 79° East 534 615 41,000  Level Minneapolis Center
Mon 05:21:01 PM 45.5678 -101.1594 80° East 533 613 41,000  Level Minneapolis Center
Mon 05:22:03 PM 45.5942 -100.9511 80° East 532 612 41,000  Level Minneapolis Center
Mon 05:23:17 PM 45.6208 -100.7428 80° East 532 612 41,000  Level Minneapolis Center
Mon 05:24:19 PM 45.6511 -100.4914 80° East 533 613 41,000  Level Minneapolis Center
Mon 05:25:21 PM 45.6811 -100.2406 80° East 532 612 41,000  Level Minneapolis Center
Mon 05:26:23 PM 45.7011 -100.0744 80° East 528 608 41,000  Level Minneapolis Center
Mon 05:27:25 PM 45.7294 -99.8239 81° East 529 609 41,000  Level Minneapolis Center
Mon 05:28:27 PM 45.7522 -99.6158 81° East 528 608 41,000  Level Minneapolis Center
Mon 05:29:29 PM 45.7753 -99.4078 81° East 528 608 41,000  Level Minneapolis Center
Mon 05:30:31 PM 45.7981 -99.1997 81° East 527 606 41,000  Level Minneapolis Center
Mon 05:31:33 PM 45.8200 -98.9928 81° East 527 606 41,000  Level Minneapolis Center
Mon 05:32:35 PM 45.8419 -98.7869 81° East 523 602 41,000  Level Minneapolis Center
Mon 05:33:37 PM 45.8667 -98.5361 82° East 527 606 41,000  Level Minneapolis Center
Mon 05:34:38 PM 45.8878 -98.3294 82° East 526 605 41,000  Level Minneapolis Center
Mon 05:35:40 PM 45.9086 -98.1219 82° East 525 604 41,000  Level Minneapolis Center
Mon 05:36:42 PM 45.9256 -97.9392 82° East 523 602 41,000  Level Minneapolis Center
Mon 05:37:45 PM 45.9486 -97.6931 82° East 522 601 41,000  Level Minneapolis Center
Mon 05:38:47 PM 45.9678 -97.4869 82° East 523 602 41,000  Level Minneapolis Center
Mon 05:39:49 PM 45.9867 -97.2814 82° East 522 601 41,000  Level Minneapolis Center
Mon 05:40:51 PM 46.0042 -97.0767 83° East 521 600 41,000  Level Minneapolis Center
Mon 05:41:53 PM 46.0253 -96.8436 82° East 521 600 41,000  Level Minneapolis Center
Mon 05:42:55 PM 46.0428 -96.6372 83° East 520 598 41,000  Level Minneapolis Center
Mon 05:43:57 PM 46.0592 -96.4300 83° East 520 598 41,000  Level Minneapolis Center
Mon 05:44:59 PM 46.0764 -96.2222 83° East 522 601 41,000  Level Minneapolis Center
Mon 05:46:01 PM 46.0961 -95.9742 83° East 520 598 41,000  Level Minneapolis Center
Mon 05:47:03 PM 46.1125 -95.7678 83° East 519 597 41,000  Level Minneapolis Center
Mon 05:48:05 PM 46.1283 -95.5606 84° East 520 598 41,000  Level Minneapolis Center
Mon 05:49:07 PM 46.1428 -95.3556 84° East 516 594 41,000  Level Minneapolis Center
Mon 05:50:09 PM 46.1583 -95.1497 84° East 516 594 41,000  Level Minneapolis Center
Mon 05:51:11 PM 46.1731 -94.9361 84° East 518 596 41,000  Level Minneapolis Center
Mon 05:52:13 PM 46.1878 -94.7303 84° East 517 595 41,000  Level Minneapolis Center
Mon 05:53:14 PM 46.2011 -94.5261 85° East 515 593 41,000  Level Minneapolis Center
Mon 05:54:28 PM 46.2144 -94.3144 85° East 516 594 41,000  Level Minneapolis Center
Mon 05:55:31 PM 46.2325 -94.0261 85° East 519 597 41,000  Level Minneapolis Center
Mon 05:56:33 PM 46.2447 -93.8208 85° East 517 595 41,000  Level Minneapolis Center
Mon 05:57:35 PM 46.2561 -93.6122 85° East 519 597 41,000  Level Minneapolis Center
Mon 05:58:37 PM 46.2672 -93.4031 86° East 522 601 41,000  Level Minneapolis Center
Mon 05:59:38 PM 46.2781 -93.1964 86° East 523 602 41,000  Level Minneapolis Center
Mon 06:00:40 PM 46.2889 -92.9939 86° East 516 594 41,000  Level Minneapolis Center
Mon 06:01:54 PM 46.3019 -92.7439 86° East 521 600 41,000  Level Minneapolis Center
Mon 06:02:57 PM 46.3147 -92.4900 86° East 528 608 41,000  Level Minneapolis Center
Mon 06:03:58 PM 46.3242 -92.2839 86° East 524 603 41,000  Level Minneapolis Center
Mon 06:05:00 PM 46.3333 -92.0769 86° East 520 598 41,000  Level Minneapolis Center
Mon 06:06:02 PM 46.3425 -91.8708 86° East 518 596 41,000  Level Minneapolis Center
Mon 06:07:04 PM 46.3522 -91.6225 87° East 518 596 41,000  Level Minneapolis Center
Mon 06:08:06 PM 46.3631 -91.4169 86° East 513 590 41,000  Level Minneapolis Center
Mon 06:09:08 PM 46.3706 -91.2081 87° East 518 596 41,000  Level Minneapolis Center
Mon 06:10:10 PM 46.3778 -90.9986 87° East 519 597 41,000  Level Minneapolis Center
Mon 06:11:11 PM 46.3844 -90.7903 87° East 519 597 41,000  Level Minneapolis Center
Mon 06:12:13 PM 46.3894 -90.5817 88° East 519 597 41,000  Level Minneapolis Center
Mon 06:13:27 PM 46.3981 -90.3322 87° East 517 595 41,000  Level Minneapolis Center
Mon 06:14:41 PM 46.4050 -90.0817 88° East 518 596 41,000  Level Minneapolis Center
Mon 06:15:43 PM 46.4117 -89.8342 88° East 512 589 41,000  Level Minneapolis Center
Mon 06:16:45 PM 46.4172 -89.6228 88° East 520 598 41,000  Level Minneapolis Center
Mon 06:17:47 PM 46.4231 -89.4119 88° East 521 600 41,000  Level Minneapolis Center
Mon 06:18:49 PM 46.4264 -89.2019 89° East 517 595 41,000  Level Minneapolis Center
Mon 06:19:51 PM 46.4300 -88.9928 88° East 516 594 41,000  Level Minneapolis Center
Mon 06:20:52 PM 46.4333 -88.7819 89° East 519 597 41,000  Level Minneapolis Center
Mon 06:21:54 PM 46.4353 -88.5742 89° East 516 594 41,000  Level Minneapolis Center
Mon 06:22:56 PM 46.4381 -88.3653 89° East 517 595 41,000  Level Minneapolis Center
Mon 06:23:57 PM 46.4403 -88.1569 89° East 516 594 41,000  Level Minneapolis Center
Mon 06:25:00 PM 46.4428 -87.9081 89° East 516 594 41,000  Level Minneapolis Center
Mon 06:26:02 PM 46.4439 -87.6869 90° East 514 592 41,000  Level Minneapolis Center
Mon 06:27:03 PM 46.4444 -87.4786 90° East 517 595 41,000  Level Minneapolis Center
Mon 06:28:05 PM 46.4444 -87.2686 90° East 519 597 41,000  Level Minneapolis Center
Mon 06:29:07 PM 46.4450 -87.0581 90° East 521 600 41,000  Level Minneapolis Center
Mon 06:30:09 PM 46.4447 -86.8486 90° East 523 602 41,000  Level Minneapolis Center
Mon 06:31:11 PM 46.4439 -86.6383 90° East 522 601 41,000  Level Minneapolis Center
Mon 06:32:13 PM 46.4431 -86.4300 90° East 519 597 41,000  Level Minneapolis Center
Mon 06:33:14 PM 46.4422 -86.2214 90° East 518 596 41,000  Level Minneapolis Center
Mon 06:34:16 PM 46.4403 -86.0158 91° East 513 590 41,000  Level Minneapolis Center
Mon 06:35:19 PM 46.4381 -85.7686 91° East 511 588 41,000  Level Minneapolis Center
Mon 06:36:21 PM 46.4353 -85.5625 91° East 511 588 41,000  Level Minneapolis Center
Mon 06:37:23 PM 46.4319 -85.3589 91° East 508 585 41,000  Level Minneapolis Center
Mon 06:38:15 PM 46.4167 -85.1667 97° East 510 587 41,000  Level Toronto Center
Mon 06:39:15 PM 46.4167 -84.9500 90° East 500 575 41,000  Level Toronto Center
Mon 06:40:15 PM 46.4000 -84.7333 96° East 500 575 41,000  Level Toronto Center
Mon 06:41:15 PM 46.4000 -84.5167 90° East 510 587 41,000  Level Toronto Center
Mon 06:42:15 PM 46.4000 -84.3500 90° East 520 598 41,000  Level Toronto Center
Mon 06:43:15 PM 46.4000 -84.1333 90° East 510 587 41,000  Level Toronto Center
Mon 06:44:15 PM 46.4000 -83.9333 90° East 500 575 41,000  Level Toronto Center
Mon 06:45:15 PM 46.4167 -83.7167 84° East 500 575 41,000  Level Toronto Center
Mon 06:46:15 PM 46.4000 -83.5167 97° East 500 575 41,000  Level Toronto Center
Mon 06:47:15 PM 46.4000 -83.3000 90° East 510 587 41,000  Level Toronto Center
Mon 06:48:15 PM 46.4167 -83.1167 82° East 510 587 41,000  Level Toronto Center
Mon 06:49:15 PM 46.4000 -82.9000 96° East 510 587 41,000  Level Toronto Center
Mon 06:50:15 PM 46.4167 -82.7000 83° East 510 587 41,000  Level Toronto Center
Mon 06:51:15 PM 46.4000 -82.4833 96° East 510 587 41,000  Level Toronto Center
Mon 06:52:15 PM 46.3500 -82.3167 113° Southeast 510 587 41,000  Level Toronto Center
Mon 06:53:15 PM 46.2833 -82.1333 118° Southeast 500 575 41,000  Level Toronto Center
Mon 06:54:15 PM 46.2167 -81.9667 120° Southeast 500 575 41,000  Level Toronto Center
Mon 06:55:15 PM 46.1333 -81.8000 126° Southeast 510 587 41,000  Level Toronto Center
Mon 06:56:15 PM 46.0667 -81.6333 120° Southeast 510 587 41,000  Level Toronto Center
Mon 06:57:15 PM 45.9833 -81.4500 123° Southeast 510 587 41,000  Level Toronto Center
Mon 06:58:15 PM 45.9000 -81.2833 126° Southeast 510 587 41,000  Level Toronto Center
Mon 06:59:15 PM 45.8333 -81.1167 120° Southeast 510 587 41,000  Level Toronto Center
Mon 07:00:15 PM 45.7500 -80.9167 121° Southeast 510 587 41,000  Level Toronto Center
Mon 07:01:15 PM 45.6833 -80.7500 120° Southeast 510 587 41,000  Level Toronto Center
Mon 07:02:15 PM 45.6000 -80.5833 126° Southeast 510 587 41,000  Level Toronto Center
Mon 07:03:15 PM 45.5333 -80.4167 120° Southeast 510 587 41,000  Level Toronto Center
Mon 07:04:15 PM 45.4500 -80.2500 125° Southeast 510 587 41,000  Level Toronto Center
Mon 07:05:15 PM 45.3833 -80.0833 120° Southeast 520 598 41,000  Level Toronto Center
Mon 07:06:15 PM 45.3000 -79.9167 125° Southeast 520 598 41,000  Level Toronto Center
Mon 07:07:15 PM 45.2167 -79.7333 123° Southeast 510 587 41,000  Level Toronto Center
Mon 07:08:15 PM 45.1333 -79.5833 128° Southeast 510 587 41,000  Level Toronto Center
Mon 07:09:15 PM 45.0667 -79.4167 119° Southeast 500 575 41,000  Level Toronto Center
Mon 07:10:15 PM 44.9833 -79.2333 123° Southeast 500 575 41,000  Level Toronto Center
Mon 07:11:15 PM 44.9167 -79.0833 122° Southeast 500 575 41,000  Level Toronto Center
Mon 07:12:15 PM 44.8333 -78.9333 128° Southeast 500 575 41,000  Level Toronto Center
Mon 07:13:15 PM 44.7500 -78.7667 125° Southeast 500 575 41,000  Level Toronto Center
Mon 07:14:15 PM 44.6833 -78.6000 119° Southeast 490 564 41,000  Level Toronto Center
Mon 07:15:15 PM 44.5833 -78.4333 130° Southeast 490 564 41,000  Level Toronto Center
Mon 07:16:15 PM 44.5167 -78.2833 122° Southeast 480 552 41,000 -300 Level Toronto Center
Mon 07:17:15 PM 44.4333 -78.1167 125° Southeast 490 564 40,400 -800 Descending Toronto Center
Mon 07:18:15 PM 44.3667 -77.9833 125° Southeast 490 564 39,400 -1,000 Descending Toronto Center
Mon 07:19:15 PM 44.2833 -77.8000 122° Southeast 500 575 38,400 -1,000 Descending Toronto Center
Mon 07:20:15 PM 44.2000 -77.6333 125° Southeast 510 587 37,400 -1,250 Descending Toronto Center
Mon 07:21:15 PM 44.1333 -77.5000 125° Southeast 510 587 35,900 -1,700 Descending Toronto Center
Mon 07:22:15 PM 44.0333 -77.3167 127° Southeast 510 587 34,000 -1,900 Descending Toronto Center
Mon 07:23:15 PM 43.9500 -77.1500 125° Southeast 520 598 32,100 -1,950 Descending Toronto Center
Mon 07:24:15 PM 43.8833 -77.0000 122° Southeast 500 575 30,100 -2,000 Descending Toronto Center
Mon 07:25:15 PM 43.8000 -76.8333 125° Southeast 500 575 28,100 -1,550 Descending Toronto Center
Mon 07:26:15 PM 43.7333 -76.7000 125° Southeast 480 552 27,000 -550 Descending Toronto Center
Mon 07:27:15 PM 43.6000 -76.6000 151° Southeast 450 518 27,000  Level Toronto Center
Mon 07:28:15 PM 43.5167 -76.5333 150° Southeast 420 483 27,000  Level Toronto Center
Mon 07:29:15 PM 43.4167 -76.4500 149° Southeast 420 483 27,000  Level Toronto Center
Mon 07:30:15 PM 43.3167 -76.3500 144° Southeast 420 483 27,000  Level Toronto Center
Mon 07:31:15 PM 43.2167 -76.2667 149° Southeast 430 495 27,000  Level Toronto Center
Mon 07:32:15 PM 43.1167 -76.1833 149° Southeast 440 506 27,000  Level Toronto Center
Mon 07:33:15 PM 43.0000 -76.0833 148° Southeast 450 518 27,000  Level Toronto Center
Mon 07:34:17 PM 42.9453 -75.9944 130° Southeast 446 513 27,000 -148 Level Boston Center
Mon 07:35:17 PM 42.8506 -75.8869 140° Southeast 446 513 26,700 -400 Descending Boston Center
Mon 07:36:17 PM 42.7475 -75.7739 141° Southeast 460 529 26,200 -550 Descending Boston Center
Mon 07:37:17 PM 42.6442 -75.6722 144° Southeast 465 535 25,600 -850 Descending Boston Center
Mon 07:38:17 PM 42.5339 -75.5847 150° Southeast 465 535 24,500 -1,050 Descending Boston Center
Mon 07:39:17 PM 42.4386 -75.4928 145° Southeast 443 510 23,500 -1,150 Descending Boston Center
Mon 07:40:17 PM 42.3539 -75.3789 135° Southeast 430 495 22,200 -1,750 Descending Boston Center
Mon 07:41:17 PM 42.2717 -75.2517 131° Southeast 415 478 20,000 -2,050 Descending Boston Center
Mon 07:42:17 PM 42.1908 -75.1556 139° Southeast 404 465 18,100 -1,000 Descending Boston Center
Mon 07:43:17 PM 42.1025 -75.0956 153° Southeast 391 450 18,000 -50 Descending Boston Center
Mon 07:44:17 PM 42.0042 -75.0272 153° Southeast 394 453 18,000  Level Boston Center
Mon 07:45:17 PM 41.9756 -74.9031 107° East 316 364 18,000  Level Boston Center
Mon 07:46:17 PM 42.0422 -74.9003 North 139 160 18,000 -50 Level Boston Center
Mon 07:47:17 PM 42.0547 -74.9958 280° West 143 165 17,900  Descending Boston Center
Mon 07:48:17 PM 42.0192 -75.0922 244° Southwest 237 273 18,000 -150 Climbing Boston Center
Mon 07:49:17 PM 41.9394 -75.1167 193° South 269 310 17,600 -450 Descending Boston Center
Mon 07:50:17 PM 41.8978 -75.0228 121° Southeast 260 299 17,100 -400 Descending Boston Center
Mon 07:51:17 PM 41.8650 -74.9072 111° Southeast 289 333 16,800 -850 Descending Boston Center
Mon 07:52:17 PM 41.8397 -74.8200 111° Southeast 289 333 15,400 -1,850 Descending Boston Center
Mon 07:53:17 PM 41.7789 -74.7425 136° Southeast 275 316 13,100 -2,250 Descending Boston Center
Mon 07:54:17 PM 41.7239 -74.6764 138° Southeast 290 334 10,900 -2,200 Descending Boston Center

Login

Don't have an account? Register now (free) for customized features, flight alerts, and more!